Time;durP1;ratioP1;P1;durP2;ratioP2;P2;SDS_P1;SDS_P2;PMS_P1;PMS_P2;Temp;Humidity;BMP_temperature;BMP_pressure;BME280_temperature;BME280_humidity;BME280_pressure;Samples;Min_cycle;Max_cycle;Signal;HPM_P1;HPM_P2
2021/11/07 00:00:54;;;;;;;4.80;1.60;;;16.50;72.60;;;;;;4822107;29;20058;-78
2021/11/07 00:08:47;;;;;;;5.10;1.60;;;16.50;72.30;;;;;;4820315;29;20061;-80
2021/11/07 00:11:25;;;;;;;8.48;2.05;;;16.50;72.30;;;;;;4818518;29;20066;-80
2021/11/07 00:13:53;;;;;;;6.72;1.73;;;16.50;72.30;;;;;;4817886;29;20062;-79
2021/11/07 00:16:28;;;;;;;5.68;1.90;;;16.50;72.40;;;;;;4805337;29;20090;-78
2021/11/07 00:21:31;;;;;;;4.80;1.73;;;16.50;72.30;;;;;;4817641;29;20462;-79
2021/11/07 00:24:06;;;;;;;6.10;1.70;;;16.50;72.40;;;;;;4836549;29;20046;-80
2021/11/07 00:29:07;;;;;;;6.32;1.92;;;16.50;72.50;;;;;;4819210;29;20125;-78
2021/11/07 00:32:04;;;;;;;6.13;1.85;;;16.50;72.50;;;;;;4827231;29;20050;-79
2021/11/07 00:36:53;;;;;;;7.05;2.10;;;16.50;72.60;;;;;;4818857;29;20046;-78
2021/11/07 00:39:28;;;;;;;6.07;2.53;;;16.50;72.60;;;;;;4827439;29;20053;-78
2021/11/07 00:44:45;;;;;;;7.45;1.70;;;16.50;72.60;;;;;;4827323;29;20054;-79
2021/11/07 00:47:22;;;;;;;9.38;2.38;;;16.50;72.60;;;;;;4825068;29;20063;-80
2021/11/07 00:49:53;;;;;;;8.27;2.08;;;16.50;72.60;;;;;;4818719;29;20046;-79
2021/11/07 00:52:26;;;;;;;7.15;2.65;;;16.50;72.60;;;;;;4818534;29;20101;-78
2021/11/07 00:58:06;;;;;;;8.30;2.50;;;16.50;72.70;;;;;;4812901;29;20481;-78
2021/11/07 01:03:01;;;;;;;8.98;2.33;;;16.50;72.60;;;;;;4827095;29;20050;-78
2021/11/07 01:05:29;;;;;;;5.22;1.55;;;16.50;72.60;;;;;;4818551;29;20094;-79
2021/11/07 01:07:56;;;;;;;5.00;2.15;;;16.40;72.60;;;;;;4833656;29;20051;-79
2021/11/07 01:10:23;;;;;;;9.00;2.15;;;16.50;72.70;;;;;;4818468;29;20501;-79
2021/11/07 01:12:49;;;;;;;6.85;2.50;;;16.40;72.60;;;;;;4818156;29;20106;-78
2021/11/07 01:15:16;;;;;;;6.03;2.13;;;16.40;72.60;;;;;;4817668;29;20050;-77
2021/11/07 01:17:42;;;;;;;5.65;1.90;;;16.50;72.60;;;;;;4817569;29;20050;-79
2021/11/07 01:20:09;;;;;;;6.72;1.90;;;16.40;72.50;;;;;;4818307;29;20045;-78
2021/11/07 01:25:06;;;;;;;7.40;2.70;;;16.40;72.50;;;;;;4817724;29;20145;-79
2021/11/07 01:27:40;;;;;;;8.45;2.60;;;16.50;72.50;;;;;;4826670;29;20054;-78
2021/11/07 01:30:13;;;;;;;10.55;2.65;;;16.40;72.30;;;;;;4816153;29;20454;-78
2021/11/07 01:32:43;;;;;;;6.90;2.05;;;16.40;72.30;;;;;;4826635;29;20165;-78
2021/11/07 01:37:47;;;;;;;7.32;2.03;;;16.40;72.30;;;;;;4818029;29;20056;-78
2021/11/07 01:40:17;;;;;;;7.75;2.67;;;16.40;72.30;;;;;;4826458;29;20047;-78
2021/11/07 01:42:53;;;;;;;7.22;2.35;;;16.40;72.30;;;;;;4826485;29;20050;-78
2021/11/07 01:45:26;;;;;;;7.07;2.17;;;16.40;72.30;;;;;;4816237;29;20078;-80
2021/11/07 01:47:56;;;;;;;7.85;2.15;;;16.50;72.40;;;;;;4815669;29;20042;-79
2021/11/07 01:50:21;;;;;;;8.18;2.45;;;16.40;72.30;;;;;;4816296;29;20133;-78
2021/11/07 01:52:54;;;;;;;7.78;2.25;;;16.40;72.30;;;;;;4817576;29;20133;-79
2021/11/07 01:55:20;;;;;;;6.95;2.30;;;16.40;72.30;;;;;;4817772;29;20050;-79
2021/11/07 01:57:49;;;;;;;8.88;2.45;;;16.40;72.30;;;;;;4817458;29;20121;-78
2021/11/07 02:00:23;;;;;;;6.55;2.10;;;16.40;72.30;;;;;;4825882;29;20050;-78
2021/11/07 02:02:49;;;;;;;8.82;2.72;;;16.40;72.30;;;;;;4825784;29;20046;-78
2021/11/07 02:05:16;;;;;;;8.13;2.13;;;16.40;72.30;;;;;;4817480;29;20042;-78
2021/11/07 02:07:42;;;;;;;8.35;2.45;;;16.40;72.30;;;;;;4826082;29;20482;-78
2021/11/07 02:10:11;;;;;;;8.68;2.95;;;16.40;72.30;;;;;;4817514;29;20125;-77
2021/11/07 02:12:40;;;;;;;6.35;2.40;;;16.40;72.30;;;;;;4825922;29;20057;-78
2021/11/07 02:15:08;;;;;;;8.07;2.20;;;16.40;72.30;;;;;;4816755;29;20062;-77
2021/11/07 02:17:34;;;;;;;6.35;2.38;;;16.40;72.30;;;;;;4825964;29;20051;-78
2021/11/07 02:20:02;;;;;;;7.07;2.30;;;16.40;72.30;;;;;;4826061;29;20062;-78
2021/11/07 02:22:28;;;;;;;8.38;2.83;;;16.30;72.20;;;;;;4825960;29;20064;-78
2021/11/07 02:24:53;;;;;;;6.85;2.00;;;16.30;72.20;;;;;;4825552;29;20435;-78
2021/11/07 02:27:19;;;;;;;7.50;2.00;;;16.30;72.20;;;;;;4825881;29;20129;-78
2021/11/07 02:29:45;;;;;;;8.55;2.70;;;16.30;72.20;;;;;;4813406;29;20084;-78
2021/11/07 02:32:11;;;;;;;8.98;2.28;;;16.30;72.20;;;;;;4825681;29;20042;-78
2021/11/07 02:34:37;;;;;;;8.07;2.42;;;16.30;72.20;;;;;;4825761;29;20042;-78
2021/11/07 02:37:03;;;;;;;6.20;2.35;;;16.30;72.20;;;;;;4817207;29;20046;-77
2021/11/07 02:39:29;;;;;;;7.93;2.53;;;16.30;72.30;;;;;;4825629;29;20119;-78
2021/11/07 02:41:55;;;;;;;11.30;3.25;;;16.30;72.20;;;;;;4825095;29;20070;-79
2021/11/07 02:44:33;;;;;;;8.35;2.70;;;16.30;72.20;;;;;;4817118;29;20050;-77
2021/11/07 02:47:01;;;;;;;6.78;2.35;;;16.30;72.10;;;;;;4825581;29;20054;-79
2021/11/07 02:49:27;;;;;;;6.75;2.40;;;16.30;72.20;;;;;;4825608;29;20109;-79
2021/11/07 02:51:57;;;;;;;7.85;3.10;;;16.30;72.10;;;;;;4832238;29;20085;-79
2021/11/07 02:54:23;;;;;;;6.55;2.53;;;16.30;72.00;;;;;;4831841;29;20057;-79
2021/11/07 02:56:51;;;;;;;7.90;2.35;;;16.30;72.10;;;;;;4832135;29;20062;-79
2021/11/07 02:59:26;;;;;;;8.48;2.50;;;16.30;72.00;;;;;;4815924;29;20054;-78
2021/11/07 03:01:54;;;;;;;7.93;2.45;;;16.30;71.80;;;;;;4823064;29;20058;-79
2021/11/07 03:04:20;;;;;;;12.07;2.90;;;16.30;71.90;;;;;;4817084;29;20050;-78
2021/11/07 03:06:45;;;;;;;7.22;2.03;;;16.30;71.90;;;;;;4816766;29;20359;-77
2021/11/07 03:09:17;;;;;;;8.65;2.75;;;16.30;71.80;;;;;;4816908;29;20054;-80
2021/11/07 03:11:43;;;;;;;8.05;2.40;;;16.30;71.80;;;;;;4825285;29;20046;-80
2021/11/07 03:14:18;;;;;;;9.80;2.60;;;16.30;71.80;;;;;;4831568;29;20046;-79
2021/11/07 03:16:45;;;;;;;8.95;3.03;;;16.30;71.80;;;;;;4825420;29;20046;-78
2021/11/07 03:19:12;;;;;;;7.47;2.67;;;16.30;71.80;;;;;;4814196;29;20057;-80
2021/11/07 03:21:38;;;;;;;8.95;2.13;;;16.30;71.80;;;;;;4816885;29;20046;-79
2021/11/07 03:24:05;;;;;;;8.45;2.80;;;16.30;71.80;;;;;;4816666;29;20062;-78
2021/11/07 03:26:33;;;;;;;7.57;2.50;;;16.20;71.80;;;;;;4830781;29;20065;-79
2021/11/07 03:29:01;;;;;;;8.98;2.50;;;16.30;71.80;;;;;;4833836;29;20469;-79
2021/11/07 03:31:38;;;;;;;8.20;2.45;;;16.20;71.80;;;;;;4835253;29;20085;-78
2021/11/07 03:34:08;;;;;;;8.07;2.20;;;16.30;72.40;;;;;;4834957;29;20058;-79
2021/11/07 03:36:51;;;;;;;7.97;2.40;;;16.20;71.70;;;;;;4817854;29;20114;-79
2021/11/07 03:39:19;;;;;;;9.13;2.85;;;16.30;71.80;;;;;;4819609;29;20093;-79
2021/11/07 03:41:46;;;;;;;6.63;2.15;;;16.20;71.70;;;;;;4820492;29;20154;-78
2021/11/07 03:44:13;;;;;;;7.50;2.50;;;16.20;71.70;;;;;;4834365;29;20042;-78
2021/11/07 03:46:40;;;;;;;7.60;2.50;;;16.20;71.70;;;;;;4820951;29;20190;-79
2021/11/07 03:49:07;;;;;;;7.95;2.47;;;16.20;71.60;;;;;;4822363;29;20077;-79
2021/11/07 03:51:34;;;;;;;8.30;2.42;;;16.20;71.60;;;;;;4836509;29;20054;-79
2021/11/07 03:54:00;;;;;;;10.73;3.13;;;16.20;71.60;;;;;;4820820;29;20058;-79
2021/11/07 03:56:27;;;;;;;6.47;2.20;;;16.20;71.60;;;;;;4822147;29;20068;-79
2021/11/07 03:58:53;;;;;;;8.30;2.65;;;16.20;71.60;;;;;;4820115;29;20047;-80
2021/11/07 04:01:19;;;;;;;7.13;2.15;;;16.20;71.50;;;;;;4818469;29;20065;-79
2021/11/07 04:03:45;;;;;;;7.60;2.10;;;16.20;71.50;;;;;;4837680;29;20442;-79
2021/11/07 04:06:12;;;;;;;5.53;2.08;;;16.20;71.50;;;;;;4836080;29;20570;-78
2021/11/07 04:08:39;;;;;;;8.40;2.70;;;16.20;71.50;;;;;;4837034;29;20492;-79
2021/11/07 04:11:05;;;;;;;7.50;2.47;;;16.20;71.50;;;;;;4821876;29;20466;-78
2021/11/07 04:13:31;;;;;;;8.13;2.28;;;16.20;71.50;;;;;;4817178;29;20042;-78
2021/11/07 04:15:57;;;;;;;6.22;2.40;;;16.20;71.50;;;;;;4820851;29;20133;-78
2021/11/07 04:18:23;;;;;;;6.05;2.10;;;16.20;71.40;;;;;;4837501;29;20133;-79
2021/11/07 04:20:49;;;;;;;13.23;3.15;;;16.20;71.40;;;;;;4835773;29;20422;-79
2021/11/07 04:23:15;;;;;;;8.82;2.42;;;16.20;71.40;;;;;;4836320;29;20054;-78
2021/11/07 04:25:41;;;;;;;7.63;2.28;;;16.20;71.30;;;;;;4832164;29;20042;-78
2021/11/07 04:28:07;;;;;;;10.55;2.63;;;16.20;71.30;;;;;;4826474;29;20058;-79
2021/11/07 04:30:34;;;;;;;7.88;2.13;;;16.20;71.30;;;;;;4827728;29;20046;-80
2021/11/07 04:33:00;;;;;;;5.50;1.83;;;16.20;71.30;;;;;;4828200;29;20346;-79
2021/11/07 04:35:28;;;;;;;8.73;1.98;;;16.20;71.20;;;;;;4812323;29;20431;-79
2021/11/07 04:37:54;;;;;;;8.73;2.55;;;16.20;71.20;;;;;;4812269;29;20054;-80
2021/11/07 04:40:20;;;;;;;9.52;2.17;;;16.20;71.20;;;;;;4811947;29;20470;-79
2021/11/07 04:42:47;;;;;;;6.35;1.70;;;16.20;71.20;;;;;;4812046;29;20126;-78
2021/11/07 04:45:14;;;;;;;4.88;1.73;;;16.20;71.20;;;;;;4811682;29;20489;-78
2021/11/07 04:47:40;;;;;;;7.28;1.95;;;16.20;71.20;;;;;;4827769;29;20054;-79
2021/11/07 04:50:09;;;;;;;7.03;1.92;;;16.20;71.20;;;;;;4811337;29;20488;-77
2021/11/07 04:52:35;;;;;;;7.18;1.55;;;16.20;71.20;;;;;;4827821;29;20054;-80
2021/11/07 04:55:01;;;;;;;7.43;1.90;;;16.20;71.20;;;;;;4827852;29;20057;-79
2021/11/07 04:57:27;;;;;;;6.35;2.03;;;16.20;71.20;;;;;;4811330;29;20054;-80
2021/11/07 04:59:53;;;;;;;6.85;1.95;;;16.20;71.20;;;;;;4826319;29;20058;-80
2021/11/07 05:02:18;;;;;;;7.47;2.38;;;16.20;71.20;;;;;;4827559;29;20122;-79
2021/11/07 05:04:44;;;;;;;8.25;2.42;;;16.20;71.20;;;;;;4811599;29;20058;-79
2021/11/07 05:07:10;;;;;;;6.57;2.05;;;16.20;71.20;;;;;;4811690;29;20085;-79
2021/11/07 05:09:36;;;;;;;7.55;2.13;;;16.10;71.10;;;;;;4811587;29;20140;-79
2021/11/07 05:12:02;;;;;;;6.68;2.03;;;16.20;71.20;;;;;;4811602;29;20050;-79
2021/11/07 05:14:27;;;;;;;5.03;1.48;;;16.10;71.10;;;;;;4827529;29;20346;-78
2021/11/07 05:16:53;;;;;;;5.78;1.88;;;16.10;71.10;;;;;;4812127;29;20129;-80
2021/11/07 05:19:19;;;;;;;6.00;1.80;;;16.10;71.10;;;;;;4811101;29;20059;-79
2021/11/07 05:21:45;;;;;;;6.95;1.95;;;16.20;71.10;;;;;;4827426;29;20093;-79
2021/11/07 05:24:11;;;;;;;8.98;1.77;;;16.20;71.10;;;;;;4827329;29;20054;-79
2021/11/07 05:26:36;;;;;;;6.47;1.65;;;16.10;71.00;;;;;;4811843;29;20090;-78
2021/11/07 05:29:05;;;;;;;7.70;2.20;;;16.10;71.00;;;;;;4825468;29;20415;-79
2021/11/07 05:31:31;;;;;;;6.05;1.60;;;16.10;71.00;;;;;;4810899;29;20095;-78
2021/11/07 05:33:57;;;;;;;8.27;1.88;;;16.10;71.00;;;;;;4810465;29;20066;-83
2021/11/07 06:38:03;;;;;;;15.43;2.67;;;17.50;70.10;;;;;;5208500;24;20477;-81
2021/11/07 06:40:29;;;;;;;14.27;2.83;;;17.40;68.90;;;;;;4857063;29;20089;-85
2021/11/07 06:42:55;;;;;;;13.27;2.28;;;17.50;68.60;;;;;;4844863;29;20054;-84
2021/11/07 06:45:21;;;;;;;14.57;2.28;;;17.50;68.80;;;;;;4826299;29;20117;-84
2021/11/07 06:47:47;;;;;;;12.95;2.70;;;17.60;68.90;;;;;;4825645;29;20423;-83
2021/11/07 06:50:13;;;;;;;16.58;2.00;;;17.80;68.70;;;;;;4811886;29;20046;-85
2021/11/07 06:52:41;;;;;;;10.52;1.80;;;17.90;68.90;;;;;;4823502;29;20405;-82
2021/11/07 06:55:07;;;;;;;14.93;2.95;;;18.00;68.70;;;;;;4812547;29;20038;-82
2021/11/07 06:57:33;;;;;;;10.90;1.73;;;18.00;68.70;;;;;;4829752;29;20090;-84
2021/11/07 06:59:58;;;;;;;15.82;2.63;;;18.10;68.40;;;;;;4811954;29;20045;-84
2021/11/07 07:02:25;;;;;;;11.23;2.50;;;18.30;68.70;;;;;;4811949;29;20041;-85
2021/11/07 07:04:51;;;;;;;18.13;2.47;;;18.40;68.10;;;;;;4826750;29;20038;-80
2021/11/07 07:07:17;;;;;;;15.43;2.55;;;18.40;68.20;;;;;;4849540;29;20166;-80
2021/11/07 07:09:50;;;;;;;17.55;2.80;;;18.50;68.10;;;;;;4846596;29;20089;-80
2021/11/07 07:17:38;;;;;;;17.70;2.75;;;18.10;67.50;;;;;;4847235;29;20057;-81
2021/11/07 07:31:23;;;;;;;13.50;2.10;;;17.30;66.20;;;;;;4827739;29;20067;-83
2021/11/07 07:33:53;;;;;;;15.95;2.58;;;17.50;68.60;;;;;;4812837;29;20054;-81
2021/11/07 07:36:21;;;;;;;17.75;2.78;;;17.70;68.60;;;;;;4797534;29;20079;-83
2021/11/07 07:38:57;;;;;;;24.77;3.40;;;17.80;68.90;;;;;;4827504;29;20066;-83
2021/11/07 07:41:23;;;;;;;16.92;2.90;;;17.80;64.50;;;;;;4812988;29;20366;-80
2021/11/07 07:43:50;;;;;;;20.48;2.92;;;17.80;67.90;;;;;;4812810;29;20133;-81
2021/11/07 07:46:16;;;;;;;15.55;2.90;;;17.80;68.20;;;;;;4812831;29;20057;-79
2021/11/07 07:48:43;;;;;;;16.30;2.92;;;18.00;69.00;;;;;;4828777;29;20518;-79
2021/11/07 07:51:12;;;;;;;13.65;2.92;;;18.00;68.50;;;;;;4827195;29;20088;-79
2021/11/07 07:53:39;;;;;;;16.33;2.42;;;18.10;68.50;;;;;;4812407;29;20047;-80
2021/11/07 07:56:05;;;;;;;11.68;2.45;;;18.10;68.30;;;;;;4828632;29;20111;-79
2021/11/07 07:58:31;;;;;;;14.25;2.00;;;18.20;68.30;;;;;;4827683;29;20050;-81
2021/11/07 08:00:57;;;;;;;7.50;1.83;;;18.20;68.10;;;;;;4837549;29;20041;-84
2021/11/07 08:03:23;;;;;;;12.65;2.70;;;18.20;67.60;;;;;;4833686;29;20060;-81
2021/11/07 08:05:49;;;;;;;13.10;2.13;;;18.20;67.30;;;;;;4848565;29;20457;-82
2021/11/07 08:08:15;;;;;;;7.88;2.13;;;18.30;67.60;;;;;;4848860;29;20357;-82
2021/11/07 08:10:41;;;;;;;12.32;2.22;;;18.30;67.10;;;;;;4833452;29;20057;-82
2021/11/07 08:13:07;;;;;;;14.35;2.42;;;18.10;65.70;;;;;;4833326;29;20141;-79
2021/11/07 08:15:34;;;;;;;11.75;2.30;;;18.20;66.70;;;;;;4848212;29;20052;-78
2021/11/07 08:18:00;;;;;;;15.55;2.13;;;18.10;66.10;;;;;;4848470;29;20045;-76
2021/11/07 08:20:26;;;;;;;11.02;2.15;;;17.70;64.40;;;;;;4864670;29;20452;-81
2021/11/07 08:22:52;;;;;;;11.98;1.88;;;17.80;66.50;;;;;;4864612;29;20112;-78
2021/11/07 08:25:22;;;;;;;15.10;2.42;;;17.80;66.70;;;;;;4858917;29;20426;-78
2021/11/07 08:27:51;;;;;;;10.43;1.90;;;17.80;67.10;;;;;;4829658;29;20053;-78
2021/11/07 08:30:22;;;;;;;12.25;2.20;;;17.90;67.10;;;;;;4814108;29;20061;-79
2021/11/07 08:32:49;;;;;;;12.88;2.65;;;17.90;66.10;;;;;;4845554;29;20089;-78
2021/11/07 08:35:15;;;;;;;11.38;2.10;;;17.90;65.70;;;;;;4844669;29;20041;-78
2021/11/07 08:40:15;;;;;;;10.95;2.13;;;17.70;66.50;;;;;;4845493;29;20477;-78
2021/11/07 08:42:46;;;;;;;13.98;2.85;;;17.70;67.20;;;;;;4844934;29;20073;-79
2021/11/07 09:01:58;;;;;;;12.30;2.50;;;17.50;66.90;;;;;;4827141;29;20470;-83
2021/11/07 09:04:26;;;;;;;10.70;1.67;;;17.20;64.30;;;;;;4848423;29;20071;-82
2021/11/07 09:09:29;;;;;;;14.32;2.70;;;16.40;65.90;;;;;;4864214;29;20496;-83
2021/11/07 09:11:57;;;;;;;10.00;2.42;;;16.20;67.50;;;;;;4863119;29;20128;-77
2021/11/07 09:14:37;;;;;;;18.80;2.97;;;16.60;69.20;;;;;;4863670;29;20202;-76
2021/11/07 09:17:08;;;;;;;17.92;2.55;;;16.90;69.40;;;;;;4849733;29;20050;-75
2021/11/07 09:19:36;;;;;;;19.73;2.75;;;17.20;67.40;;;;;;4846022;29;20085;-76
2021/11/07 09:22:11;;;;;;;12.30;2.50;;;16.90;68.00;;;;;;4843719;29;20547;-78
2021/11/07 09:27:14;;;;;;;21.15;3.42;;;16.90;68.80;;;;;;4827250;29;20378;-79
2021/11/07 09:32:51;;;;;;;14.85;2.80;;;17.40;69.20;;;;;;4829423;29;20462;-79
2021/11/07 09:40:10;;;;;;;16.98;2.88;;;17.90;68.20;;;;;;4828538;29;20497;-79
2021/11/07 09:45:24;;;;;;;18.85;2.65;;;18.00;68.20;;;;;;4828200;29;20061;-81
2021/11/07 09:47:56;;;;;;;20.88;2.95;;;18.00;67.70;;;;;;4828045;29;20467;-81
2021/11/07 09:50:22;;;;;;;16.05;2.40;;;18.10;67.40;;;;;;4837142;29;20057;-81
2021/11/07 09:52:50;;;;;;;16.38;2.20;;;18.10;67.10;;;;;;4828442;29;20050;-80
2021/11/07 09:55:22;;;;;;;16.65;2.60;;;18.10;67.10;;;;;;4828159;29;20050;-83
2021/11/07 09:57:51;;;;;;;11.68;2.13;;;18.10;67.00;;;;;;4844473;29;20378;-82
2021/11/07 10:00:28;;;;;;;10.00;2.10;;;18.10;67.00;;;;;;4827836;29;20446;-80
2021/11/07 10:02:56;;;;;;;13.43;2.35;;;18.10;67.00;;;;;;4843806;29;20046;-81
2021/11/07 10:05:24;;;;;;;9.90;2.08;;;18.10;66.90;;;;;;4827773;29;20060;-79
2021/11/07 10:08:02;;;;;;;10.98;2.35;;;18.00;66.90;;;;;;4828053;29;20466;-80
2021/11/07 10:10:31;;;;;;;10.18;2.38;;;18.00;67.40;;;;;;4812677;29;20057;-79
2021/11/07 10:13:05;;;;;;;11.80;2.35;;;18.00;67.00;;;;;;4828375;29;20054;-81
2021/11/07 10:15:41;;;;;;;12.80;2.42;;;18.00;67.00;;;;;;4827698;29;20060;-82
2021/11/07 10:18:10;;;;;;;12.13;2.22;;;17.90;67.10;;;;;;4843602;29;20501;-80
2021/11/07 10:20:44;;;;;;;8.48;2.22;;;17.90;67.10;;;;;;4827518;29;20070;-81
2021/11/07 10:23:22;;;;;;;10.07;2.15;;;17.90;67.10;;;;;;4812954;29;20049;-80
2021/11/07 10:26:09;;;;;;;10.75;2.13;;;17.80;67.00;;;;;;4827963;29;20065;-82
2021/11/07 10:28:44;;;;;;;13.50;2.00;;;17.80;67.10;;;;;;4827735;29;20054;-79
2021/11/07 10:31:20;;;;;;;7.18;1.50;;;17.80;67.20;;;;;;4822034;29;20046;-82
2021/11/07 10:52:42;;;;;;;9.02;2.00;;;17.60;67.30;;;;;;4795206;29;20054;-81
2021/11/07 10:55:20;;;;;;;6.40;1.98;;;17.60;67.40;;;;;;4810069;29;20081;-82
2021/11/07 10:57:48;;;;;;;7.22;2.22;;;17.50;67.30;;;;;;4795077;29;20074;-80
2021/11/07 11:00:22;;;;;;;7.30;2.08;;;17.50;67.30;;;;;;4810324;29;20062;-80
2021/11/07 11:02:57;;;;;;;9.57;1.60;;;17.50;67.30;;;;;;4810185;29;20357;-80
2021/11/07 11:05:47;;;;;;;7.97;1.65;;;17.50;67.40;;;;;;4809511;29;20130;-81
2021/11/07 11:08:36;;;;;;;6.28;2.13;;;17.50;67.20;;;;;;4799181;29;20119;-79
2021/11/07 11:14:29;;;;;;;7.63;1.73;;;17.40;67.50;;;;;;4809674;29;20474;-82
2021/11/07 11:16:58;;;;;;;6.47;1.70;;;17.40;67.60;;;;;;4794342;29;20124;-81
2021/11/07 11:35:33;;;;;;;8.20;2.22;;;17.30;68.00;;;;;;4809678;29;20063;-83
2021/11/07 11:41:01;;;;;;;8.52;1.73;;;17.30;67.90;;;;;;4830033;29;20053;-81
2021/11/07 11:43:35;;;;;;;14.13;2.28;;;17.30;67.80;;;;;;4829798;29;20046;-79
2021/11/07 11:46:12;;;;;;;12.43;2.65;;;17.20;67.70;;;;;;4824021;29;20065;-77
2021/11/07 11:56:41;;;;;;;14.30;3.80;;;17.60;67.60;;;;;;4846353;29;20385;-78
2021/11/07 12:05:43;;;;;;;16.08;3.58;;;17.70;63.70;;;;;;4844529;29;20470;-78
2021/11/07 12:08:12;;;;;;;22.08;3.45;;;17.70;63.10;;;;;;4839552;29;20077;-77
2021/11/07 12:10:48;;;;;;;16.10;3.00;;;17.80;63.40;;;;;;4846286;29;20092;-77
2021/11/07 12:13:44;;;;;;;20.67;4.03;;;17.90;63.50;;;;;;4839333;29;20042;-73
2021/11/07 12:16:17;;;;;;;14.90;3.20;;;18.10;63.50;;;;;;4814389;29;20060;-77
2021/11/07 12:19:09;;;;;;;18.33;3.58;;;18.20;63.80;;;;;;4829888;29;20060;-81
2021/11/07 12:22:00;;;;;;;16.48;3.58;;;18.20;63.90;;;;;;4846098;29;20038;-81
2021/11/07 12:24:32;;;;;;;18.08;4.40;;;18.30;64.10;;;;;;4823966;29;20054;-84
2021/11/07 12:27:33;;;;;;;14.32;3.28;;;18.30;64.50;;;;;;4829273;29;20068;-84
2021/11/07 12:30:10;;;;;;;11.73;3.13;;;18.30;64.30;;;;;;4810556;29;20099;-84
2021/11/07 12:32:39;;;;;;;14.02;3.25;;;18.30;64.60;;;;;;4832379;29;20053;-80
2021/11/07 12:40:38;;;;;;;17.20;3.58;;;18.30;64.30;;;;;;4844110;29;20402;-79
2021/11/07 12:43:06;;;;;;;12.98;3.22;;;18.30;64.90;;;;;;4814386;29;20134;-79
2021/11/07 12:45:47;;;;;;;14.05;2.97;;;18.30;65.10;;;;;;4829413;29;20137;-80
2021/11/07 12:48:34;;;;;;;12.68;2.80;;;18.30;65.20;;;;;;4845445;29;20053;-79
2021/11/07 12:51:01;;;;;;;20.88;2.97;;;18.40;65.40;;;;;;4829325;29;20053;-79
2021/11/07 12:53:29;;;;;;;16.00;3.42;;;18.40;65.40;;;;;;4844996;29;20050;-78
2021/11/07 12:55:55;;;;;;;17.48;3.22;;;18.50;65.30;;;;;;4845491;29;20061;-80
2021/11/07 12:58:21;;;;;;;13.65;3.53;;;18.60;60.30;;;;;;4813798;29;20061;-80
2021/11/07 13:00:48;;;;;;;14.23;2.72;;;18.40;64.30;;;;;;4829321;29;20082;-79
2021/11/07 13:03:17;;;;;;;16.27;3.47;;;18.50;65.60;;;;;;4844700;29;20125;-79
2021/11/07 13:05:43;;;;;;;13.30;3.33;;;18.50;64.80;;;;;;4844847;29;20050;-79
2021/11/07 13:08:21;;;;;;;10.23;2.95;;;18.60;64.90;;;;;;4829317;29;20144;-78
2021/11/07 13:10:56;;;;;;;11.68;2.58;;;18.70;64.80;;;;;;4837936;29;20100;-79
2021/11/07 13:13:47;;;;;;;14.95;2.47;;;18.80;64.30;;;;;;4844834;29;20042;-79
2021/11/07 13:16:39;;;;;;;12.65;2.42;;;18.90;63.90;;;;;;4829187;29;20480;-78
2021/11/07 13:29:53;;;;;;;12.85;2.20;;;18.70;64.60;;;;;;4828963;29;20401;-83
2021/11/07 13:35:41;;;;;;;13.82;2.40;;;18.70;64.80;;;;;;4844144;29;20443;-85
2021/11/07 13:43:02;;;;;;;16.65;3.38;;;18.70;64.70;;;;;;4839434;29;20076;-85
2021/11/07 13:45:30;;;;;;;15.45;3.17;;;17.80;65.80;;;;;;4828096;29;20171;-75
2021/11/07 13:52:08;;;;;;;9.15;2.65;;;18.10;66.10;;;;;;4777795;30;20055;-85
2021/11/07 13:54:38;;;;;;;13.13;2.92;;;18.10;65.30;;;;;;4766702;30;20187;-77
2021/11/07 13:57:05;;;;;;;16.83;2.80;;;18.30;65.30;;;;;;4785829;30;20135;-77
2021/11/07 13:59:40;;;;;;;15.52;3.17;;;18.10;64.90;;;;;;4801221;29;20053;-79
2021/11/07 14:02:12;;;;;;;13.88;2.75;;;18.20;64.90;;;;;;4827869;29;20088;-79
2021/11/07 14:04:46;;;;;;;12.82;2.80;;;18.20;64.90;;;;;;4844283;29;20061;-78
2021/11/07 14:07:18;;;;;;;13.43;2.55;;;18.20;65.10;;;;;;4843841;29;20118;-77
2021/11/07 14:10:20;;;;;;;14.57;2.83;;;18.10;65.50;;;;;;4844470;29;20057;-79
2021/11/07 14:12:55;;;;;;;12.20;3.03;;;18.00;65.50;;;;;;4837877;29;20053;-79
2021/11/07 14:15:31;;;;;;;13.60;3.28;;;17.50;68.00;;;;;;4843763;29;20175;-79
2021/11/07 14:18:16;;;;;;;12.20;2.50;;;17.30;68.60;;;;;;4828201;29;20050;-76
2021/11/07 14:20:52;;;;;;;13.02;3.15;;;17.10;70.40;;;;;;4843865;29;20050;-74
2021/11/07 14:23:35;;;;;;;12.25;2.70;;;17.10;69.70;;;;;;4844064;29;20050;-74
2021/11/07 14:26:25;;;;;;;14.75;2.60;;;17.00;70.70;;;;;;4843749;29;20465;-74
2021/11/07 14:29:12;;;;;;;14.68;2.65;;;16.80;70.70;;;;;;4844049;29;20073;-73
2021/11/07 14:34:19;;;;;;;12.88;3.38;;;16.80;71.10;;;;;;4843824;29;20074;-74
2021/11/07 14:45:24;;;;;;;10.48;2.20;;;17.10;70.00;;;;;;4823823;29;20056;-79
2021/11/07 14:54:04;;;;;;;9.88;2.35;;;17.40;69.00;;;;;;4827370;29;20098;-84
2021/11/07 14:57:05;;;;;;;16.70;2.13;;;17.50;69.00;;;;;;4825929;29;20059;-83
2021/11/07 14:59:45;;;;;;;12.50;2.25;;;17.70;69.10;;;;;;4833392;29;20037;-84
2021/11/07 15:05:05;;;;;;;12.85;1.83;;;17.90;68.70;;;;;;4846148;29;20053;-84
2021/11/07 15:07:46;;;;;;;14.07;2.90;;;18.00;68.70;;;;;;4830775;29;20048;-84
2021/11/07 15:10:26;;;;;;;8.90;1.92;;;18.10;68.70;;;;;;4830651;29;20128;-83
2021/11/07 15:18:41;;;;;;;14.73;2.53;;;18.40;68.70;;;;;;4809383;29;20133;-84
2021/11/07 15:21:47;;;;;;;9.30;2.30;;;18.40;68.60;;;;;;4811486;29;20122;-86
2021/11/07 15:24:37;;;;;;;13.80;2.17;;;18.40;68.70;;;;;;4814190;29;20068;-82
2021/11/07 15:27:12;;;;;;;12.43;2.25;;;18.40;68.60;;;;;;4827460;29;20057;-83
2021/11/07 15:29:55;;;;;;;11.75;2.75;;;18.40;68.70;;;;;;4813114;29;20350;-81
2021/11/07 15:32:25;;;;;;;15.73;2.00;;;18.40;68.90;;;;;;4812383;29;20057;-80
2021/11/07 15:34:54;;;;;;;11.20;2.55;;;18.40;68.90;;;;;;4815034;29;20045;-80
2021/11/07 15:37:32;;;;;;;14.27;2.63;;;18.40;69.10;;;;;;4846075;29;20050;-80
2021/11/07 15:40:02;;;;;;;17.80;2.15;;;18.30;69.00;;;;;;4845200;29;20446;-79
2021/11/07 15:42:30;;;;;;;16.42;2.63;;;18.30;69.10;;;;;;4830752;29;20374;-79
2021/11/07 15:45:03;;;;;;;10.93;3.38;;;18.30;69.40;;;;;;4830337;29;20125;-81
2021/11/07 16:06:22;;;;;;;22.73;4.53;;;18.40;70.40;;;;;;4830008;29;20458;-83
2021/11/07 16:11:52;;;;;;;21.50;3.40;;;18.50;71.40;;;;;;4830183;29;20053;-78
2021/11/07 16:16:53;;;;;;;10.50;2.90;;;18.40;70.30;;;;;;4846395;29;20140;-79
2021/11/07 16:19:23;;;;;;;14.52;3.28;;;18.40;69.40;;;;;;4830316;29;20058;-79
2021/11/07 16:21:50;;;;;;;12.70;2.85;;;18.40;68.20;;;;;;4830235;29;20201;-78
2021/11/07 16:24:19;;;;;;;13.32;3.47;;;18.30;67.70;;;;;;4846510;29;20369;-77
2021/11/07 16:26:46;;;;;;;13.60;2.80;;;18.30;67.70;;;;;;4830418;29;20062;-79
2021/11/07 16:29:12;;;;;;;13.63;3.08;;;18.20;67.90;;;;;;4830139;29;20061;-78
2021/11/07 16:31:44;;;;;;;19.58;3.38;;;18.10;68.00;;;;;;4830074;29;20128;-80
2021/11/07 16:34:13;;;;;;;16.70;3.63;;;18.10;68.30;;;;;;4838351;29;20046;-78
2021/11/07 16:36:46;;;;;;;15.85;2.90;;;18.10;68.50;;;;;;4815535;29;20117;-78
2021/11/07 16:39:59;;;;;;;18.60;3.75;;;18.10;68.70;;;;;;4845706;29;20065;-79
2021/11/07 16:42:06;;;;;;;11.88;2.85;;;18.10;68.90;;;;;;4823939;29;20089;-77
2021/11/07 16:44:39;;;;;;;17.92;3.17;;;18.00;69.20;;;;;;4829375;29;20121;-79
2021/11/07 16:47:21;;;;;;;15.77;2.73;;;18.00;69.40;;;;;;4814384;29;20062;-78
2021/11/07 16:53:44;;;;;;;13.95;3.28;;;18.00;69.80;;;;;;4788403;30;20058;-78
2021/11/07 17:03:01;;;;;;;10.63;2.50;;;18.00;70.00;;;;;;4819062;29;20125;-78
2021/11/07 17:05:40;;;;;;;15.60;2.97;;;18.00;70.00;;;;;;4829512;29;20085;-74
2021/11/07 17:08:16;;;;;;;13.57;2.30;;;18.00;69.80;;;;;;4845225;29;20053;-79
2021/11/07 17:10:42;;;;;;;14.05;2.85;;;18.00;68.70;;;;;;4846311;29;20054;-78
2021/11/07 17:13:11;;;;;;;20.38;3.15;;;18.00;68.10;;;;;;4829359;29;20069;-81
2021/11/07 17:18:08;;;;;;;16.88;3.40;;;18.00;67.50;;;;;;4845858;29;20073;-79
2021/11/07 17:23:39;;;;;;;13.73;3.17;;;17.90;67.30;;;;;;4829098;29;20089;-78
2021/11/07 17:26:12;;;;;;;14.73;3.03;;;17.90;67.40;;;;;;4845553;29;20069;-81
2021/11/07 17:28:47;;;;;;;14.65;3.40;;;17.90;67.40;;;;;;4829713;29;20132;-78
2021/11/07 17:36:24;;;;;;;11.02;2.60;;;17.90;67.40;;;;;;4829133;29;20053;-78
2021/11/07 17:49:58;;;;;;;9.45;2.50;;;17.80;67.50;;;;;;4829833;29;20062;-80
2021/11/07 17:55:14;;;;;;;10.63;2.30;;;17.80;67.60;;;;;;4828773;29;20484;-77
2021/11/07 17:57:40;;;;;;;10.05;2.78;;;17.80;67.60;;;;;;4828514;29;20373;-81
2021/11/07 18:00:12;;;;;;;9.70;2.70;;;17.80;67.70;;;;;;4829493;29;20053;-79
2021/11/07 18:02:38;;;;;;;8.80;2.72;;;17.80;67.80;;;;;;4828900;29;20053;-78
2021/11/07 18:05:04;;;;;;;9.02;2.33;;;17.70;67.80;;;;;;4844781;29;20479;-79
2021/11/07 18:07:33;;;;;;;7.93;2.00;;;17.80;67.90;;;;;;4844860;29;20483;-79